Burnham-on-Sea, United Kingdom
Current Conditions -  °F | °C
As of 11:50 AM on Thursday 23 Oct 2014 (Local Time) from EGGD Reporting Station
Broken Clouds Broken Clouds  
Wind Chill: 13°   Ceiling: 4300
Heat Index: 13°   Visibility: 6mi
Dew Point: 11°   Wind: 10mph
Humidity: 88%   Direction: 200°SSW
Pressure: 30.09"   Gusts: NA
Location:  51.23°N, 3°W
Report Text: EGGD 231050Z 20009KT 9999 SCT011 BKN043 13/11 Q1019
Loading
Personal Weather Stations






























Interactive Weather Map
Tropical Storm Tracking
New forecast layout! Learn more

10-Day Weather Forecast

Advertisements
Track Severe Weather on mobile